sensor_id;sensor_type;location;lat;lon;timestamp;P1;durP1;ratioP1;P2;durP2;ratioP2
53036;SDS011;38924;52.134;4.666;2023-05-07T00:02:01;48.20;;;42.17;;
53036;SDS011;38924;52.134;4.666;2023-05-07T00:04:28;54.22;;;41.40;;
53036;SDS011;38924;52.134;4.666;2023-05-07T00:06:54;55.28;;;45.03;;
53036;SDS011;38924;52.134;4.666;2023-05-07T00:09:24;61.08;;;44.83;;
53036;SDS011;38924;52.134;4.666;2023-05-07T00:11:49;54.70;;;43.35;;
53036;SDS011;38924;52.134;4.666;2023-05-07T00:14:15;55.35;;;45.75;;
53036;SDS011;38924;52.134;4.666;2023-05-07T00:16:40;61.08;;;44.88;;
53036;SDS011;38924;52.134;4.666;2023-05-07T00:19:06;56.63;;;42.30;;
53036;SDS011;38924;52.134;4.666;2023-05-07T00:21:32;56.42;;;43.97;;
53036;SDS011;38924;52.134;4.666;2023-05-07T00:23:58;58.20;;;43.28;;
53036;SDS011;38924;52.134;4.666;2023-05-07T00:26:23;58.97;;;44.05;;
53036;SDS011;38924;52.134;4.666;2023-05-07T00:28:50;59.95;;;45.85;;
53036;SDS011;38924;52.134;4.666;2023-05-07T00:31:16;55.10;;;43.58;;
53036;SDS011;38924;52.134;4.666;2023-05-07T00:33:42;61.53;;;45.33;;
53036;SDS011;38924;52.134;4.666;2023-05-07T00:36:07;66.45;;;45.30;;
53036;SDS011;38924;52.134;4.666;2023-05-07T00:38:33;60.65;;;43.55;;
53036;SDS011;38924;52.134;4.666;2023-05-07T00:40:59;51.60;;;41.20;;
53036;SDS011;38924;52.134;4.666;2023-05-07T00:43:25;58.22;;;42.42;;
53036;SDS011;38924;52.134;4.666;2023-05-07T00:45:50;54.70;;;41.28;;
53036;SDS011;38924;52.134;4.666;2023-05-07T00:48:16;60.22;;;43.05;;
53036;SDS011;38924;52.134;4.666;2023-05-07T00:50:42;55.88;;;42.45;;
53036;SDS011;38924;52.134;4.666;2023-05-07T00:53:08;56.50;;;41.13;;
53036;SDS011;38924;52.134;4.666;2023-05-07T00:55:37;52.80;;;40.88;;
53036;SDS011;38924;52.134;4.666;2023-05-07T00:58:03;54.72;;;42.70;;
53036;SDS011;38924;52.134;4.666;2023-05-07T01:00:28;51.70;;;39.97;;
53036;SDS011;38924;52.134;4.666;2023-05-07T01:02:55;52.65;;;42.20;;
53036;SDS011;38924;52.134;4.666;2023-05-07T01:05:20;60.10;;;40.70;;
53036;SDS011;38924;52.134;4.666;2023-05-07T01:07:48;50.63;;;40.30;;
53036;SDS011;38924;52.134;4.666;2023-05-07T01:10:15;45.38;;;38.20;;
53036;SDS011;38924;52.134;4.666;2023-05-07T01:12:41;50.50;;;39.33;;
53036;SDS011;38924;52.134;4.666;2023-05-07T01:15:08;49.70;;;40.83;;
53036;SDS011;38924;52.134;4.666;2023-05-07T01:17:35;50.28;;;40.03;;
53036;SDS011;38924;52.134;4.666;2023-05-07T01:20:06;52.17;;;41.22;;
53036;SDS011;38924;52.134;4.666;2023-05-07T01:22:33;46.15;;;38.75;;
53036;SDS011;38924;52.134;4.666;2023-05-07T01:24:59;47.03;;;38.75;;
53036;SDS011;38924;52.134;4.666;2023-05-07T01:27:27;47.25;;;39.08;;
53036;SDS011;38924;52.134;4.666;2023-05-07T01:29:53;50.83;;;39.65;;
53036;SDS011;38924;52.134;4.666;2023-05-07T01:32:24;48.40;;;41.25;;
53036;SDS011;38924;52.134;4.666;2023-05-07T01:34:52;50.30;;;42.60;;
53036;SDS011;38924;52.134;4.666;2023-05-07T01:37:19;53.90;;;41.25;;
53036;SDS011;38924;52.134;4.666;2023-05-07T01:39:45;50.13;;;40.92;;
53036;SDS011;38924;52.134;4.666;2023-05-07T01:42:11;54.38;;;42.72;;
53036;SDS011;38924;52.134;4.666;2023-05-07T01:44:37;48.20;;;41.33;;
53036;SDS011;38924;52.134;4.666;2023-05-07T01:47:03;47.78;;;40.85;;
53036;SDS011;38924;52.134;4.666;2023-05-07T01:49:29;47.65;;;40.05;;
53036;SDS011;38924;52.134;4.666;2023-05-07T01:52:02;44.80;;;39.55;;
53036;SDS011;38924;52.134;4.666;2023-05-07T01:54:28;41.55;;;37.10;;
53036;SDS011;38924;52.134;4.666;2023-05-07T01:56:57;44.95;;;39.72;;
53036;SDS011;38924;52.134;4.666;2023-05-07T01:59:23;45.47;;;39.08;;
53036;SDS011;38924;52.134;4.666;2023-05-07T02:01:49;48.38;;;38.72;;
53036;SDS011;38924;52.134;4.666;2023-05-07T02:04:14;45.47;;;39.55;;
53036;SDS011;38924;52.134;4.666;2023-05-07T02:06:43;43.70;;;37.05;;
53036;SDS011;38924;52.134;4.666;2023-05-07T02:09:10;42.67;;;38.15;;
53036;SDS011;38924;52.134;4.666;2023-05-07T02:11:38;39.47;;;35.22;;
53036;SDS011;38924;52.134;4.666;2023-05-07T02:14:04;44.42;;;36.85;;
53036;SDS011;38924;52.134;4.666;2023-05-07T02:16:30;37.90;;;33.20;;
53036;SDS011;38924;52.134;4.666;2023-05-07T02:18:56;41.97;;;33.95;;
53036;SDS011;38924;52.134;4.666;2023-05-07T02:21:22;41.92;;;32.08;;
53036;SDS011;38924;52.134;4.666;2023-05-07T02:23:47;37.10;;;33.33;;
53036;SDS011;38924;52.134;4.666;2023-05-07T02:26:13;40.03;;;33.72;;
53036;SDS011;38924;52.134;4.666;2023-05-07T02:28:39;38.38;;;33.83;;
53036;SDS011;38924;52.134;4.666;2023-05-07T02:31:05;36.47;;;30.55;;
53036;SDS011;38924;52.134;4.666;2023-05-07T02:33:31;34.03;;;30.27;;
53036;SDS011;38924;52.134;4.666;2023-05-07T02:36:05;33.60;;;30.20;;
53036;SDS011;38924;52.134;4.666;2023-05-07T02:38:31;35.58;;;30.70;;
53036;SDS011;38924;52.134;4.666;2023-05-07T02:40:56;39.45;;;32.15;;
53036;SDS011;38924;52.134;4.666;2023-05-07T02:43:22;32.83;;;29.40;;
53036;SDS011;38924;52.134;4.666;2023-05-07T02:45:48;34.60;;;30.45;;
53036;SDS011;38924;52.134;4.666;2023-05-07T02:48:15;33.72;;;29.15;;
53036;SDS011;38924;52.134;4.666;2023-05-07T02:50:40;35.53;;;30.77;;
53036;SDS011;38924;52.134;4.666;2023-05-07T02:53:09;32.33;;;27.08;;
53036;SDS011;38924;52.134;4.666;2023-05-07T02:55:38;28.85;;;25.75;;
53036;SDS011;38924;52.134;4.666;2023-05-07T02:58:29;33.05;;;27.48;;
53036;SDS011;38924;52.134;4.666;2023-05-07T03:00:56;32.53;;;28.90;;
53036;SDS011;38924;52.134;4.666;2023-05-07T03:03:31;33.50;;;27.85;;
53036;SDS011;38924;52.134;4.666;2023-05-07T03:05:57;27.33;;;24.48;;
53036;SDS011;38924;52.134;4.666;2023-05-07T03:08:22;29.27;;;26.13;;
53036;SDS011;38924;52.134;4.666;2023-05-07T03:10:48;30.15;;;25.92;;
53036;SDS011;38924;52.134;4.666;2023-05-07T03:13:14;30.10;;;26.05;;
53036;SDS011;38924;52.134;4.666;2023-05-07T03:15:40;28.75;;;25.83;;
53036;SDS011;38924;52.134;4.666;2023-05-07T03:18:06;28.75;;;25.73;;
53036;SDS011;38924;52.134;4.666;2023-05-07T03:20:31;28.45;;;25.42;;
53036;SDS011;38924;52.134;4.666;2023-05-07T03:22:57;29.30;;;24.55;;
53036;SDS011;38924;52.134;4.666;2023-05-07T03:25:23;27.58;;;24.60;;
53036;SDS011;38924;52.134;4.666;2023-05-07T03:27:49;25.90;;;23.33;;
53036;SDS011;38924;52.134;4.666;2023-05-07T03:30:17;27.00;;;24.13;;
53036;SDS011;38924;52.134;4.666;2023-05-07T03:32:43;25.40;;;22.70;;
53036;SDS011;38924;52.134;4.666;2023-05-07T03:35:11;26.08;;;23.35;;
53036;SDS011;38924;52.134;4.666;2023-05-07T03:37:37;29.80;;;22.40;;
53036;SDS011;38924;52.134;4.666;2023-05-07T03:40:04;28.35;;;22.08;;
53036;SDS011;38924;52.134;4.666;2023-05-07T03:42:33;28.10;;;23.52;;
53036;SDS011;38924;52.134;4.666;2023-05-07T03:44:59;25.77;;;22.33;;
53036;SDS011;38924;52.134;4.666;2023-05-07T03:47:25;28.05;;;22.55;;
53036;SDS011;38924;52.134;4.666;2023-05-07T03:49:51;24.83;;;22.20;;
53036;SDS011;38924;52.134;4.666;2023-05-07T03:52:18;24.95;;;22.25;;
53036;SDS011;38924;52.134;4.666;2023-05-07T03:54:48;24.23;;;21.73;;
53036;SDS011;38924;52.134;4.666;2023-05-07T03:57:15;25.33;;;22.65;;
53036;SDS011;38924;52.134;4.666;2023-05-07T03:59:41;30.85;;;21.02;;
53036;SDS011;38924;52.134;4.666;2023-05-07T04:02:07;29.33;;;23.77;;
53036;SDS011;38924;52.134;4.666;2023-05-07T04:04:36;24.35;;;21.90;;
53036;SDS011;38924;52.134;4.666;2023-05-07T04:07:02;24.35;;;21.98;;
53036;SDS011;38924;52.134;4.666;2023-05-07T04:09:29;23.58;;;21.27;;
53036;SDS011;38924;52.134;4.666;2023-05-07T04:11:59;24.25;;;21.67;;
53036;SDS011;38924;52.134;4.666;2023-05-07T04:14:25;24.25;;;21.63;;
53036;SDS011;38924;52.134;4.666;2023-05-07T04:16:50;24.30;;;21.77;;
53036;SDS011;38924;52.134;4.666;2023-05-07T04:19:16;27.95;;;23.17;;
53036;SDS011;38924;52.134;4.666;2023-05-07T04:21:42;23.52;;;20.38;;
53036;SDS011;38924;52.134;4.666;2023-05-07T04:24:08;23.40;;;21.15;;
53036;SDS011;38924;52.134;4.666;2023-05-07T04:26:34;24.08;;;21.67;;
53036;SDS011;38924;52.134;4.666;2023-05-07T04:29:00;24.35;;;21.58;;
53036;SDS011;38924;52.134;4.666;2023-05-07T04:31:30;23.55;;;21.15;;
53036;SDS011;38924;52.134;4.666;2023-05-07T04:33:56;24.33;;;21.92;;
53036;SDS011;38924;52.134;4.666;2023-05-07T04:36:21;23.63;;;21.23;;
53036;SDS011;38924;52.134;4.666;2023-05-07T04:38:53;23.77;;;20.65;;
53036;SDS011;38924;52.134;4.666;2023-05-07T04:41:19;22.42;;;20.05;;
53036;SDS011;38924;52.134;4.666;2023-05-07T04:43:46;23.15;;;20.75;;
53036;SDS011;38924;52.134;4.666;2023-05-07T04:46:13;23.63;;;21.08;;
53036;SDS011;38924;52.134;4.666;2023-05-07T04:48:40;22.50;;;20.23;;
53036;SDS011;38924;52.134;4.666;2023-05-07T04:51:06;23.08;;;20.02;;
53036;SDS011;38924;52.134;4.666;2023-05-07T04:53:33;24.52;;;18.63;;
53036;SDS011;38924;52.134;4.666;2023-05-07T04:55:58;21.80;;;18.77;;
53036;SDS011;38924;52.134;4.666;2023-05-07T04:58:30;21.35;;;19.23;;
53036;SDS011;38924;52.134;4.666;2023-05-07T05:00:57;22.05;;;18.83;;
53036;SDS011;38924;52.134;4.666;2023-05-07T05:03:23;20.88;;;18.67;;
53036;SDS011;38924;52.134;4.666;2023-05-07T05:05:49;20.88;;;18.80;;
53036;SDS011;38924;52.134;4.666;2023-05-07T05:08:15;21.75;;;19.15;;
53036;SDS011;38924;52.134;4.666;2023-05-07T05:10:42;22.27;;;19.80;;
53036;SDS011;38924;52.134;4.666;2023-05-07T05:13:09;21.30;;;19.13;;
53036;SDS011;38924;52.134;4.666;2023-05-07T05:15:35;22.13;;;19.98;;
53036;SDS011;38924;52.134;4.666;2023-05-07T05:18:01;24.10;;;20.40;;
53036;SDS011;38924;52.134;4.666;2023-05-07T05:20:27;22.50;;;19.60;;
53036;SDS011;38924;52.134;4.666;2023-05-07T05:22:53;22.88;;;19.27;;
53036;SDS011;38924;52.134;4.666;2023-05-07T05:25:19;20.58;;;18.58;;
53036;SDS011;38924;52.134;4.666;2023-05-07T05:27:45;21.55;;;19.27;;
53036;SDS011;38924;52.134;4.666;2023-05-07T05:30:11;24.27;;;19.80;;
53036;SDS011;38924;52.134;4.666;2023-05-07T05:32:37;21.80;;;19.48;;
53036;SDS011;38924;52.134;4.666;2023-05-07T05:35:04;21.63;;;19.35;;
53036;SDS011;38924;52.134;4.666;2023-05-07T05:37:30;21.33;;;19.20;;
53036;SDS011;38924;52.134;4.666;2023-05-07T05:39:56;22.30;;;20.15;;
53036;SDS011;38924;52.134;4.666;2023-05-07T05:42:24;24.45;;;20.05;;
53036;SDS011;38924;52.134;4.666;2023-05-07T05:44:50;24.92;;;20.58;;
53036;SDS011;38924;52.134;4.666;2023-05-07T05:47:15;21.02;;;18.92;;
53036;SDS011;38924;52.134;4.666;2023-05-07T05:49:41;21.95;;;19.40;;
53036;SDS011;38924;52.134;4.666;2023-05-07T05:52:09;30.08;;;24.70;;
53036;SDS011;38924;52.134;4.666;2023-05-07T05:54:35;24.83;;;20.83;;
53036;SDS011;38924;52.134;4.666;2023-05-07T05:57:01;29.05;;;25.95;;
53036;SDS011;38924;52.134;4.666;2023-05-07T05:59:29;24.67;;;22.20;;
53036;SDS011;38924;52.134;4.666;2023-05-07T06:01:55;25.58;;;22.60;;
53036;SDS011;38924;52.134;4.666;2023-05-07T06:04:21;35.42;;;25.77;;
53036;SDS011;38924;52.134;4.666;2023-05-07T06:06:46;25.40;;;22.20;;
53036;SDS011;38924;52.134;4.666;2023-05-07T06:09:12;27.27;;;22.50;;
53036;SDS011;38924;52.134;4.666;2023-05-07T06:11:42;26.90;;;23.48;;
53036;SDS011;38924;52.134;4.666;2023-05-07T06:14:09;25.80;;;23.15;;
53036;SDS011;38924;52.134;4.666;2023-05-07T06:16:35;26.73;;;23.85;;
53036;SDS011;38924;52.134;4.666;2023-05-07T06:19:02;27.67;;;23.50;;
53036;SDS011;38924;52.134;4.666;2023-05-07T06:21:27;30.27;;;23.23;;
53036;SDS011;38924;52.134;4.666;2023-05-07T06:23:53;27.75;;;24.77;;
53036;SDS011;38924;52.134;4.666;2023-05-07T06:26:20;30.42;;;25.08;;
53036;SDS011;38924;52.134;4.666;2023-05-07T06:28:49;30.60;;;24.77;;
53036;SDS011;38924;52.134;4.666;2023-05-07T06:31:17;28.15;;;25.13;;
53036;SDS011;38924;52.134;4.666;2023-05-07T06:33:51;32.15;;;26.40;;
53036;SDS011;38924;52.134;4.666;2023-05-07T06:36:17;30.63;;;26.23;;
53036;SDS011;38924;52.134;4.666;2023-05-07T06:38:44;28.52;;;25.48;;
53036;SDS011;38924;52.134;4.666;2023-05-07T06:41:09;30.65;;;26.73;;
53036;SDS011;38924;52.134;4.666;2023-05-07T06:43:37;31.60;;;26.00;;
53036;SDS011;38924;52.134;4.666;2023-05-07T06:46:27;29.10;;;25.23;;
53036;SDS011;38924;52.134;4.666;2023-05-07T06:48:52;30.63;;;25.77;;
53036;SDS011;38924;52.134;4.666;2023-05-07T06:51:19;30.40;;;26.88;;
53036;SDS011;38924;52.134;4.666;2023-05-07T06:53:44;32.75;;;27.65;;
53036;SDS011;38924;52.134;4.666;2023-05-07T06:56:11;32.35;;;28.88;;
53036;SDS011;38924;52.134;4.666;2023-05-07T06:58:38;35.78;;;29.33;;
53036;SDS011;38924;52.134;4.666;2023-05-07T07:01:04;33.15;;;29.13;;
53036;SDS011;38924;52.134;4.666;2023-05-07T07:03:31;32.05;;;28.65;;
53036;SDS011;38924;52.134;4.666;2023-05-07T07:05:56;33.95;;;26.08;;
53036;SDS011;38924;52.134;4.666;2023-05-07T07:08:25;28.23;;;25.27;;
53036;SDS011;38924;52.134;4.666;2023-05-07T07:10:54;27.50;;;24.27;;
53036;SDS011;38924;52.134;4.666;2023-05-07T07:13:20;28.00;;;25.08;;
53036;SDS011;38924;52.134;4.666;2023-05-07T07:15:46;27.70;;;24.88;;
53036;SDS011;38924;52.134;4.666;2023-05-07T07:18:11;30.05;;;25.13;;
53036;SDS011;38924;52.134;4.666;2023-05-07T07:20:38;28.80;;;24.83;;
53036;SDS011;38924;52.134;4.666;2023-05-07T07:23:06;26.80;;;23.80;;
53036;SDS011;38924;52.134;4.666;2023-05-07T07:25:31;27.58;;;24.63;;
53036;SDS011;38924;52.134;4.666;2023-05-07T07:27:57;26.10;;;23.55;;
53036;SDS011;38924;52.134;4.666;2023-05-07T07:30:24;24.08;;;20.45;;
53036;SDS011;38924;52.134;4.666;2023-05-07T07:32:51;21.70;;;19.20;;
53036;SDS011;38924;52.134;4.666;2023-05-07T07:35:18;22.70;;;18.83;;
53036;SDS011;38924;52.134;4.666;2023-05-07T07:37:44;21.83;;;17.33;;
53036;SDS011;38924;52.134;4.666;2023-05-07T07:40:12;19.08;;;16.33;;
53036;SDS011;38924;52.134;4.666;2023-05-07T07:42:38;19.42;;;17.40;;
53036;SDS011;38924;52.134;4.666;2023-05-07T07:45:03;18.90;;;16.77;;
53036;SDS011;38924;52.134;4.666;2023-05-07T07:47:32;18.27;;;16.38;;
53036;SDS011;38924;52.134;4.666;2023-05-07T07:49:58;21.50;;;17.27;;
53036;SDS011;38924;52.134;4.666;2023-05-07T07:52:27;17.25;;;15.55;;
53036;SDS011;38924;52.134;4.666;2023-05-07T07:54:56;16.85;;;15.02;;
53036;SDS011;38924;52.134;4.666;2023-05-07T07:57:22;16.63;;;14.93;;
53036;SDS011;38924;52.134;4.666;2023-05-07T07:59:48;16.65;;;14.50;;
53036;SDS011;38924;52.134;4.666;2023-05-07T08:02:15;17.08;;;14.05;;
53036;SDS011;38924;52.134;4.666;2023-05-07T08:04:41;17.13;;;13.07;;
53036;SDS011;38924;52.134;4.666;2023-05-07T08:07:11;17.02;;;15.18;;
53036;SDS011;38924;52.134;4.666;2023-05-07T08:09:40;17.23;;;15.10;;
53036;SDS011;38924;52.134;4.666;2023-05-07T08:12:07;19.85;;;16.35;;
53036;SDS011;38924;52.134;4.666;2023-05-07T08:14:34;19.55;;;17.50;;
53036;SDS011;38924;52.134;4.666;2023-05-07T08:17:00;17.73;;;15.82;;
53036;SDS011;38924;52.134;4.666;2023-05-07T08:19:26;17.35;;;15.45;;
53036;SDS011;38924;52.134;4.666;2023-05-07T08:21:52;16.80;;;15.07;;
53036;SDS011;38924;52.134;4.666;2023-05-07T08:24:18;16.73;;;14.93;;
53036;SDS011;38924;52.134;4.666;2023-05-07T08:26:45;17.88;;;14.77;;
53036;SDS011;38924;52.134;4.666;2023-05-07T08:29:11;20.75;;;18.52;;
53036;SDS011;38924;52.134;4.666;2023-05-07T08:31:37;22.27;;;16.17;;
53036;SDS011;38924;52.134;4.666;2023-05-07T08:34:05;17.92;;;16.05;;
53036;SDS011;38924;52.134;4.666;2023-05-07T08:36:32;19.98;;;17.98;;
53036;SDS011;38924;52.134;4.666;2023-05-07T08:38:59;17.63;;;15.93;;
53036;SDS011;38924;52.134;4.666;2023-05-07T08:41:25;17.75;;;14.13;;
53036;SDS011;38924;52.134;4.666;2023-05-07T08:43:51;15.52;;;14.02;;
53036;SDS011;38924;52.134;4.666;2023-05-07T08:46:21;16.27;;;14.70;;
53036;SDS011;38924;52.134;4.666;2023-05-07T08:48:51;20.00;;;18.30;;
53036;SDS011;38924;52.134;4.666;2023-05-07T08:51:18;18.00;;;15.80;;
53036;SDS011;38924;52.134;4.666;2023-05-07T08:53:45;18.35;;;16.58;;
53036;SDS011;38924;52.134;4.666;2023-05-07T08:56:16;20.20;;;18.42;;
53036;SDS011;38924;52.134;4.666;2023-05-07T08:58:42;19.67;;;15.73;;
53036;SDS011;38924;52.134;4.666;2023-05-07T09:01:15;20.80;;;15.10;;
53036;SDS011;38924;52.134;4.666;2023-05-07T09:03:45;16.00;;;14.32;;
53036;SDS011;38924;52.134;4.666;2023-05-07T09:06:11;18.65;;;16.65;;
53036;SDS011;38924;52.134;4.666;2023-05-07T09:08:41;21.35;;;15.40;;
53036;SDS011;38924;52.134;4.666;2023-05-07T09:11:08;14.90;;;13.55;;
53036;SDS011;38924;52.134;4.666;2023-05-07T09:13:33;15.77;;;13.70;;
53036;SDS011;38924;52.134;4.666;2023-05-07T09:16:11;15.73;;;14.23;;
53036;SDS011;38924;52.134;4.666;2023-05-07T09:18:42;11.77;;;10.57;;
53036;SDS011;38924;52.134;4.666;2023-05-07T09:21:10;15.82;;;12.90;;
53036;SDS011;38924;52.134;4.666;2023-05-07T09:23:37;15.35;;;12.38;;
53036;SDS011;38924;52.134;4.666;2023-05-07T09:26:03;16.60;;;12.10;;
53036;SDS011;38924;52.134;4.666;2023-05-07T09:28:32;14.25;;;12.52;;
53036;SDS011;38924;52.134;4.666;2023-05-07T09:30:58;17.50;;;14.40;;
53036;SDS011;38924;52.134;4.666;2023-05-07T09:33:26;15.02;;;13.48;;
53036;SDS011;38924;52.134;4.666;2023-05-07T09:35:52;14.85;;;13.18;;
53036;SDS011;38924;52.134;4.666;2023-05-07T09:38:19;14.10;;;11.35;;
53036;SDS011;38924;52.134;4.666;2023-05-07T09:40:47;12.38;;;11.20;;
53036;SDS011;38924;52.134;4.666;2023-05-07T09:43:26;12.38;;;8.85;;
53036;SDS011;38924;52.134;4.666;2023-05-07T09:45:57;13.23;;;9.23;;
53036;SDS011;38924;52.134;4.666;2023-05-07T09:48:25;10.13;;;8.70;;
53036;SDS011;38924;52.134;4.666;2023-05-07T09:50:55;13.05;;;9.30;;
53036;SDS011;38924;52.134;4.666;2023-05-07T09:53:24;12.02;;;8.98;;
53036;SDS011;38924;52.134;4.666;2023-05-07T09:55:59;10.25;;;8.30;;
53036;SDS011;38924;52.134;4.666;2023-05-07T09:58:25;15.15;;;13.65;;
53036;SDS011;38924;52.134;4.666;2023-05-07T10:00:51;14.70;;;12.02;;
53036;SDS011;38924;52.134;4.666;2023-05-07T10:03:18;16.00;;;14.35;;
53036;SDS011;38924;52.134;4.666;2023-05-07T10:05:51;12.87;;;11.43;;
53036;SDS011;38924;52.134;4.666;2023-05-07T10:08:19;15.30;;;13.80;;
53036;SDS011;38924;52.134;4.666;2023-05-07T10:10:47;13.95;;;12.50;;
53036;SDS011;38924;52.134;4.666;2023-05-07T10:13:18;15.68;;;14.05;;
53036;SDS011;38924;52.134;4.666;2023-05-07T10:15:49;13.63;;;11.93;;
53036;SDS011;38924;52.134;4.666;2023-05-07T10:18:15;19.50;;;12.25;;
53036;SDS011;38924;52.134;4.666;2023-05-07T10:20:48;18.15;;;15.90;;
53036;SDS011;38924;52.134;4.666;2023-05-07T10:23:17;15.10;;;10.13;;
53036;SDS011;38924;52.134;4.666;2023-05-07T10:25:46;13.70;;;12.10;;
53036;SDS011;38924;52.134;4.666;2023-05-07T10:28:20;18.58;;;11.50;;
53036;SDS011;38924;52.134;4.666;2023-05-07T10:33:24;14.13;;;12.50;;
53036;SDS011;38924;52.134;4.666;2023-05-07T10:35:51;16.00;;;14.40;;
53036;SDS011;38924;52.134;4.666;2023-05-07T10:38:20;13.63;;;11.73;;
53036;SDS011;38924;52.134;4.666;2023-05-07T10:40:47;15.98;;;13.95;;
53036;SDS011;38924;52.134;4.666;2023-05-07T10:43:12;14.77;;;13.23;;
53036;SDS011;38924;52.134;4.666;2023-05-07T10:46:08;15.27;;;11.83;;
53036;SDS011;38924;52.134;4.666;2023-05-07T10:48:34;15.07;;;10.77;;
53036;SDS011;38924;52.134;4.666;2023-05-07T10:51:21;13.15;;;11.40;;
53036;SDS011;38924;52.134;4.666;2023-05-07T10:54:14;12.50;;;11.30;;
53036;SDS011;38924;52.134;4.666;2023-05-07T10:56:39;15.90;;;12.15;;
53036;SDS011;38924;52.134;4.666;2023-05-07T11:01:56;14.45;;;12.35;;
53036;SDS011;38924;52.134;4.666;2023-05-07T11:04:49;15.13;;;13.25;;
53036;SDS011;38924;52.134;4.666;2023-05-07T11:07:33;17.27;;;13.93;;
53036;SDS011;38924;52.134;4.666;2023-05-07T11:10:07;17.38;;;15.75;;
53036;SDS011;38924;52.134;4.666;2023-05-07T11:12:46;16.45;;;14.85;;
53036;SDS011;38924;52.134;4.666;2023-05-07T11:15:34;16.65;;;14.98;;
53036;SDS011;38924;52.134;4.666;2023-05-07T11:18:02;20.40;;;17.20;;
53036;SDS011;38924;52.134;4.666;2023-05-07T11:26:22;16.17;;;13.45;;
53036;SDS011;38924;52.134;4.666;2023-05-07T11:28:51;14.48;;;13.18;;
53036;SDS011;38924;52.134;4.666;2023-05-07T11:31:22;14.77;;;13.25;;
53036;SDS011;38924;52.134;4.666;2023-05-07T11:33:49;20.40;;;12.85;;
53036;SDS011;38924;52.134;4.666;2023-05-07T11:36:21;13.45;;;11.60;;
53036;SDS011;38924;52.134;4.666;2023-05-07T11:38:51;18.53;;;15.23;;
53036;SDS011;38924;52.134;4.666;2023-05-07T11:41:17;16.10;;;14.00;;
53036;SDS011;38924;52.134;4.666;2023-05-07T11:43:53;17.67;;;14.18;;
53036;SDS011;38924;52.134;4.666;2023-05-07T11:46:19;16.33;;;14.63;;
53036;SDS011;38924;52.134;4.666;2023-05-07T11:48:45;14.43;;;13.00;;
53036;SDS011;38924;52.134;4.666;2023-05-07T11:51:10;15.27;;;13.38;;
53036;SDS011;38924;52.134;4.666;2023-05-07T11:53:40;18.90;;;14.95;;
53036;SDS011;38924;52.134;4.666;2023-05-07T11:56:09;18.55;;;16.98;;
53036;SDS011;38924;52.134;4.666;2023-05-07T11:58:35;16.10;;;14.55;;
53036;SDS011;38924;52.134;4.666;2023-05-07T12:01:01;19.38;;;15.70;;
53036;SDS011;38924;52.134;4.666;2023-05-07T12:03:30;16.13;;;14.63;;
53036;SDS011;38924;52.134;4.666;2023-05-07T12:05:56;20.50;;;18.42;;
53036;SDS011;38924;52.134;4.666;2023-05-07T12:08:21;16.65;;;13.23;;
53036;SDS011;38924;52.134;4.666;2023-05-07T12:10:50;16.20;;;14.63;;
53036;SDS011;38924;52.134;4.666;2023-05-07T12:13:23;16.17;;;11.60;;
53036;SDS011;38924;52.134;4.666;2023-05-07T12:15:50;15.37;;;13.57;;
53036;SDS011;38924;52.134;4.666;2023-05-07T12:18:16;11.82;;;10.57;;
53036;SDS011;38924;52.134;4.666;2023-05-07T12:20:42;14.13;;;12.60;;
53036;SDS011;38924;52.134;4.666;2023-05-07T12:23:08;14.75;;;12.05;;
53036;SDS011;38924;52.134;4.666;2023-05-07T12:25:38;13.75;;;12.45;;
53036;SDS011;38924;52.134;4.666;2023-05-07T12:28:05;14.23;;;12.73;;
53036;SDS011;38924;52.134;4.666;2023-05-07T12:30:31;17.17;;;15.48;;
53036;SDS011;38924;52.134;4.666;2023-05-07T12:34:51;15.98;;;14.55;;
53036;SDS011;38924;52.134;4.666;2023-05-07T12:37:23;14.18;;;12.68;;
53036;SDS011;38924;52.134;4.666;2023-05-07T12:39:48;16.17;;;14.77;;
53036;SDS011;38924;52.134;4.666;2023-05-07T12:42:15;16.17;;;11.43;;
53036;SDS011;38924;52.134;4.666;2023-05-07T12:44:41;16.13;;;14.45;;
53036;SDS011;38924;52.134;4.666;2023-05-07T12:47:09;10.93;;;7.20;;
53036;SDS011;38924;52.134;4.666;2023-05-07T12:50:59;14.43;;;13.13;;
53036;SDS011;38924;52.134;4.666;2023-05-07T12:53:25;14.20;;;13.05;;
53036;SDS011;38924;52.134;4.666;2023-05-07T12:55:52;16.85;;;15.48;;
53036;SDS011;38924;52.134;4.666;2023-05-07T12:58:23;15.18;;;13.57;;
53036;SDS011;38924;52.134;4.666;2023-05-07T13:00:50;14.77;;;13.50;;
53036;SDS011;38924;52.134;4.666;2023-05-07T13:03:22;19.25;;;16.75;;
53036;SDS011;38924;52.134;4.666;2023-05-07T13:05:49;21.95;;;19.83;;
53036;SDS011;38924;52.134;4.666;2023-05-07T13:08:31;19.25;;;16.58;;
53036;SDS011;38924;52.134;4.666;2023-05-07T13:10:59;23.70;;;21.30;;
53036;SDS011;38924;52.134;4.666;2023-05-07T13:16:11;24.23;;;16.90;;
53036;SDS011;38924;52.134;4.666;2023-05-07T13:18:37;25.25;;;19.52;;
53036;SDS011;38924;52.134;4.666;2023-05-07T13:21:03;21.73;;;19.35;;
53036;SDS011;38924;52.134;4.666;2023-05-07T13:23:32;23.15;;;18.95;;
53036;SDS011;38924;52.134;4.666;2023-05-07T13:25:58;23.00;;;20.83;;
53036;SDS011;38924;52.134;4.666;2023-05-07T13:28:24;20.63;;;18.02;;
53036;SDS011;38924;52.134;4.666;2023-05-07T13:30:50;21.45;;;19.17;;
53036;SDS011;38924;52.134;4.666;2023-05-07T13:33:20;19.05;;;16.40;;
53036;SDS011;38924;52.134;4.666;2023-05-07T13:35:45;19.80;;;16.95;;
53036;SDS011;38924;52.134;4.666;2023-05-07T13:38:11;19.95;;;15.50;;
53036;SDS011;38924;52.134;4.666;2023-05-07T13:40:37;16.80;;;15.00;;
53036;SDS011;38924;52.134;4.666;2023-05-07T13:43:02;17.55;;;15.70;;
53036;SDS011;38924;52.134;4.666;2023-05-07T13:45:28;18.63;;;14.55;;
53036;SDS011;38924;52.134;4.666;2023-05-07T13:47:55;18.00;;;15.85;;
53036;SDS011;38924;52.134;4.666;2023-05-07T13:50:20;18.20;;;15.38;;
53036;SDS011;38924;52.134;4.666;2023-05-07T13:52:46;18.95;;;17.20;;
53036;SDS011;38924;52.134;4.666;2023-05-07T13:55:16;19.60;;;16.65;;
53036;SDS011;38924;52.134;4.666;2023-05-07T13:57:42;17.08;;;15.38;;
53036;SDS011;38924;52.134;4.666;2023-05-07T14:00:08;18.50;;;16.70;;
53036;SDS011;38924;52.134;4.666;2023-05-07T14:02:40;18.25;;;16.27;;
53036;SDS011;38924;52.134;4.666;2023-05-07T14:05:06;21.08;;;17.42;;
53036;SDS011;38924;52.134;4.666;2023-05-07T14:07:35;22.95;;;19.45;;
53036;SDS011;38924;52.134;4.666;2023-05-07T14:10:01;21.30;;;18.92;;
53036;SDS011;38924;52.134;4.666;2023-05-07T14:12:27;20.75;;;18.17;;
53036;SDS011;38924;52.134;4.666;2023-05-07T14:14:52;18.95;;;17.08;;
53036;SDS011;38924;52.134;4.666;2023-05-07T14:17:18;20.48;;;17.23;;
53036;SDS011;38924;52.134;4.666;2023-05-07T14:19:44;19.27;;;16.83;;
53036;SDS011;38924;52.134;4.666;2023-05-07T14:22:10;17.13;;;15.32;;
53036;SDS011;38924;52.134;4.666;2023-05-07T14:24:35;20.38;;;17.20;;
53036;SDS011;38924;52.134;4.666;2023-05-07T14:27:01;20.15;;;17.58;;
53036;SDS011;38924;52.134;4.666;2023-05-07T14:29:27;20.23;;;18.17;;
53036;SDS011;38924;52.134;4.666;2023-05-07T14:31:53;17.92;;;15.65;;
53036;SDS011;38924;52.134;4.666;2023-05-07T14:34:19;19.83;;;15.80;;
53036;SDS011;38924;52.134;4.666;2023-05-07T14:36:44;19.25;;;16.02;;
53036;SDS011;38924;52.134;4.666;2023-05-07T14:39:10;24.42;;;17.10;;
53036;SDS011;38924;52.134;4.666;2023-05-07T14:41:35;21.42;;;18.05;;